sensor_id;sensor_type;location;lat;lon;timestamp;P1;durP1;ratioP1;P2;durP2;ratioP2
42104;SDS011;70664;51.472;5.712;2023-06-14T00:01:52;5.78;;;4.47;;
42104;SDS011;70664;51.472;5.712;2023-06-14T00:04:18;6.20;;;4.35;;
42104;SDS011;70664;51.472;5.712;2023-06-14T00:06:45;6.78;;;4.38;;
42104;SDS011;70664;51.472;5.712;2023-06-14T00:09:11;8.05;;;4.40;;
42104;SDS011;70664;51.472;5.712;2023-06-14T00:11:38;9.75;;;4.20;;
42104;SDS011;70664;51.472;5.712;2023-06-14T00:14:05;4.30;;;3.90;;
42104;SDS011;70664;51.472;5.712;2023-06-14T00:16:32;5.22;;;4.45;;
42104;SDS011;70664;51.472;5.712;2023-06-14T00:18:58;5.03;;;4.38;;
42104;SDS011;70664;51.472;5.712;2023-06-14T00:21:24;6.57;;;4.05;;
42104;SDS011;70664;51.472;5.712;2023-06-14T00:23:53;6.95;;;4.60;;
42104;SDS011;70664;51.472;5.712;2023-06-14T00:26:19;7.22;;;4.20;;
42104;SDS011;70664;51.472;5.712;2023-06-14T00:28:45;6.72;;;4.40;;
42104;SDS011;70664;51.472;5.712;2023-06-14T00:31:11;8.35;;;4.05;;
42104;SDS011;70664;51.472;5.712;2023-06-14T00:33:36;6.30;;;4.10;;
42104;SDS011;70664;51.472;5.712;2023-06-14T00:36:02;6.55;;;4.80;;
42104;SDS011;70664;51.472;5.712;2023-06-14T00:38:28;5.45;;;4.32;;
42104;SDS011;70664;51.472;5.712;2023-06-14T00:40:54;8.05;;;4.93;;
42104;SDS011;70664;51.472;5.712;2023-06-14T00:43:20;8.00;;;4.25;;
42104;SDS011;70664;51.472;5.712;2023-06-14T00:45:46;6.75;;;4.47;;
42104;SDS011;70664;51.472;5.712;2023-06-14T00:48:14;6.90;;;4.20;;
42104;SDS011;70664;51.472;5.712;2023-06-14T00:50:40;5.70;;;4.35;;
42104;SDS011;70664;51.472;5.712;2023-06-14T00:53:06;4.80;;;4.28;;
42104;SDS011;70664;51.472;5.712;2023-06-14T00:55:32;5.63;;;4.20;;
42104;SDS011;70664;51.472;5.712;2023-06-14T00:57:58;4.30;;;3.90;;
42104;SDS011;70664;51.472;5.712;2023-06-14T01:00:25;4.45;;;4.05;;
42104;SDS011;70664;51.472;5.712;2023-06-14T01:02:53;5.25;;;4.13;;
42104;SDS011;70664;51.472;5.712;2023-06-14T01:05:20;6.53;;;4.47;;
42104;SDS011;70664;51.472;5.712;2023-06-14T01:10:53;5.80;;;4.50;;
42104;SDS011;70664;51.472;5.712;2023-06-14T01:16:01;5.05;;;4.22;;
42104;SDS011;70664;51.472;5.712;2023-06-14T01:18:28;6.05;;;3.97;;
42104;SDS011;70664;51.472;5.712;2023-06-14T01:20:55;7.32;;;4.50;;
42104;SDS011;70664;51.472;5.712;2023-06-14T01:23:22;5.07;;;4.18;;
42104;SDS011;70664;51.472;5.712;2023-06-14T01:25:49;5.53;;;3.97;;
42104;SDS011;70664;51.472;5.712;2023-06-14T01:28:18;4.82;;;4.00;;
42104;SDS011;70664;51.472;5.712;2023-06-14T01:30:47;5.57;;;4.43;;
42104;SDS011;70664;51.472;5.712;2023-06-14T01:33:24;5.82;;;4.10;;
42104;SDS011;70664;51.472;5.712;2023-06-14T01:35:53;5.30;;;4.10;;
42104;SDS011;70664;51.472;5.712;2023-06-14T01:38:21;5.20;;;4.10;;
42104;SDS011;70664;51.472;5.712;2023-06-14T01:40:49;5.43;;;4.00;;
42104;SDS011;70664;51.472;5.712;2023-06-14T01:43:16;7.13;;;4.25;;
42104;SDS011;70664;51.472;5.712;2023-06-14T01:45:44;5.22;;;4.15;;
42104;SDS011;70664;51.472;5.712;2023-06-14T01:48:13;7.07;;;4.63;;
42104;SDS011;70664;51.472;5.712;2023-06-14T01:50:40;4.63;;;4.22;;
42104;SDS011;70664;51.472;5.712;2023-06-14T01:53:09;4.78;;;4.28;;
42104;SDS011;70664;51.472;5.712;2023-06-14T01:55:36;4.95;;;4.45;;
42104;SDS011;70664;51.472;5.712;2023-06-14T01:58:03;5.18;;;4.32;;
42104;SDS011;70664;51.472;5.712;2023-06-14T02:00:31;5.47;;;4.25;;
42104;SDS011;70664;51.472;5.712;2023-06-14T02:02:57;4.82;;;4.07;;
42104;SDS011;70664;51.472;5.712;2023-06-14T02:05:23;4.50;;;4.10;;
42104;SDS011;70664;51.472;5.712;2023-06-14T02:07:49;5.35;;;4.15;;
42104;SDS011;70664;51.472;5.712;2023-06-14T02:10:15;5.95;;;4.20;;
42104;SDS011;70664;51.472;5.712;2023-06-14T02:12:42;5.45;;;4.25;;
42104;SDS011;70664;51.472;5.712;2023-06-14T02:15:08;7.20;;;4.32;;
42104;SDS011;70664;51.472;5.712;2023-06-14T02:17:41;6.00;;;4.20;;
42104;SDS011;70664;51.472;5.712;2023-06-14T02:20:08;4.57;;;4.03;;
42104;SDS011;70664;51.472;5.712;2023-06-14T02:22:34;4.97;;;4.05;;
42104;SDS011;70664;51.472;5.712;2023-06-14T02:25:00;4.30;;;3.90;;
42104;SDS011;70664;51.472;5.712;2023-06-14T02:27:26;4.75;;;3.97;;
42104;SDS011;70664;51.472;5.712;2023-06-14T02:29:52;5.18;;;4.07;;
42104;SDS011;70664;51.472;5.712;2023-06-14T02:32:18;4.70;;;4.20;;
42104;SDS011;70664;51.472;5.712;2023-06-14T02:34:44;4.90;;;4.28;;
42104;SDS011;70664;51.472;5.712;2023-06-14T02:37:14;5.00;;;4.10;;
42104;SDS011;70664;51.472;5.712;2023-06-14T02:39:41;5.82;;;4.10;;
42104;SDS011;70664;51.472;5.712;2023-06-14T02:42:07;5.22;;;4.10;;
42104;SDS011;70664;51.472;5.712;2023-06-14T02:44:33;5.38;;;3.90;;
42104;SDS011;70664;51.472;5.712;2023-06-14T02:47:00;5.70;;;4.10;;
42104;SDS011;70664;51.472;5.712;2023-06-14T02:49:26;5.68;;;4.40;;
42104;SDS011;70664;51.472;5.712;2023-06-14T02:51:51;5.07;;;4.10;;
42104;SDS011;70664;51.472;5.712;2023-06-14T02:54:17;4.90;;;3.97;;
42104;SDS011;70664;51.472;5.712;2023-06-14T02:56:43;5.18;;;4.10;;
42104;SDS011;70664;51.472;5.712;2023-06-14T02:59:09;4.38;;;3.75;;
42104;SDS011;70664;51.472;5.712;2023-06-14T03:01:35;5.10;;;4.45;;
42104;SDS011;70664;51.472;5.712;2023-06-14T03:04:06;5.20;;;3.85;;
42104;SDS011;70664;51.472;5.712;2023-06-14T03:06:35;5.57;;;3.97;;
42104;SDS011;70664;51.472;5.712;2023-06-14T03:09:02;5.05;;;3.97;;
42104;SDS011;70664;51.472;5.712;2023-06-14T03:11:32;5.20;;;4.18;;
42104;SDS011;70664;51.472;5.712;2023-06-14T03:13:58;4.78;;;4.28;;
42104;SDS011;70664;51.472;5.712;2023-06-14T03:16:25;4.68;;;4.03;;
42104;SDS011;70664;51.472;5.712;2023-06-14T03:18:53;5.20;;;4.18;;
42104;SDS011;70664;51.472;5.712;2023-06-14T03:21:19;4.43;;;3.88;;
42104;SDS011;70664;51.472;5.712;2023-06-14T03:23:46;4.35;;;3.95;;
42104;SDS011;70664;51.472;5.712;2023-06-14T03:26:13;7.65;;;4.20;;
42104;SDS011;70664;51.472;5.712;2023-06-14T03:28:42;4.45;;;3.80;;
42104;SDS011;70664;51.472;5.712;2023-06-14T03:31:10;5.18;;;4.35;;
42104;SDS011;70664;51.472;5.712;2023-06-14T03:33:37;5.03;;;4.25;;
42104;SDS011;70664;51.472;5.712;2023-06-14T03:36:03;4.05;;;3.65;;
42104;SDS011;70664;51.472;5.712;2023-06-14T03:38:30;4.30;;;3.90;;
42104;SDS011;70664;51.472;5.712;2023-06-14T03:40:56;4.50;;;3.60;;
42104;SDS011;70664;51.472;5.712;2023-06-14T03:43:22;5.80;;;4.18;;
42104;SDS011;70664;51.472;5.712;2023-06-14T03:45:48;4.80;;;4.30;;
42104;SDS011;70664;51.472;5.712;2023-06-14T03:48:14;4.35;;;3.95;;
42104;SDS011;70664;51.472;5.712;2023-06-14T03:50:40;4.40;;;3.95;;
42104;SDS011;70664;51.472;5.712;2023-06-14T03:53:07;4.13;;;3.50;;
42104;SDS011;70664;51.472;5.712;2023-06-14T03:55:34;4.45;;;3.97;;
42104;SDS011;70664;51.472;5.712;2023-06-14T03:58:00;4.28;;;3.70;;
42104;SDS011;70664;51.472;5.712;2023-06-14T04:00:26;5.40;;;4.03;;
42104;SDS011;70664;51.472;5.712;2023-06-14T04:02:52;5.53;;;4.03;;
42104;SDS011;70664;51.472;5.712;2023-06-14T04:05:19;4.13;;;3.60;;
42104;SDS011;70664;51.472;5.712;2023-06-14T04:07:45;5.75;;;4.10;;
42104;SDS011;70664;51.472;5.712;2023-06-14T04:10:13;4.72;;;3.80;;
42104;SDS011;70664;51.472;5.712;2023-06-14T04:12:41;4.68;;;3.90;;
42104;SDS011;70664;51.472;5.712;2023-06-14T04:15:08;7.30;;;4.00;;
42104;SDS011;70664;51.472;5.712;2023-06-14T04:17:34;4.07;;;3.67;;
42104;SDS011;70664;51.472;5.712;2023-06-14T04:20:02;5.15;;;3.80;;
42104;SDS011;70664;51.472;5.712;2023-06-14T04:22:33;3.95;;;3.50;;
42104;SDS011;70664;51.472;5.712;2023-06-14T04:24:59;5.20;;;4.22;;
42104;SDS011;70664;51.472;5.712;2023-06-14T04:27:26;4.30;;;3.83;;
42104;SDS011;70664;51.472;5.712;2023-06-14T04:29:53;4.30;;;3.80;;
42104;SDS011;70664;51.472;5.712;2023-06-14T04:32:28;4.20;;;3.63;;
42104;SDS011;70664;51.472;5.712;2023-06-14T04:34:57;4.20;;;3.80;;
42104;SDS011;70664;51.472;5.712;2023-06-14T04:37:24;4.93;;;3.80;;
42104;SDS011;70664;51.472;5.712;2023-06-14T04:39:53;5.10;;;3.78;;
42104;SDS011;70664;51.472;5.712;2023-06-14T04:42:21;4.88;;;3.65;;
42104;SDS011;70664;51.472;5.712;2023-06-14T04:44:50;4.13;;;3.70;;
42104;SDS011;70664;51.472;5.712;2023-06-14T04:47:19;4.95;;;3.80;;
42104;SDS011;70664;51.472;5.712;2023-06-14T04:49:46;4.82;;;3.63;;
42104;SDS011;70664;51.472;5.712;2023-06-14T04:52:12;5.03;;;4.10;;
42104;SDS011;70664;51.472;5.712;2023-06-14T04:54:39;5.07;;;3.70;;
42104;SDS011;70664;51.472;5.712;2023-06-14T04:57:08;4.28;;;3.35;;
42104;SDS011;70664;51.472;5.712;2023-06-14T04:59:39;6.60;;;3.97;;
42104;SDS011;70664;51.472;5.712;2023-06-14T05:02:05;4.10;;;3.70;;
42104;SDS011;70664;51.472;5.712;2023-06-14T05:04:32;4.22;;;3.45;;
42104;SDS011;70664;51.472;5.712;2023-06-14T05:06:58;5.10;;;3.40;;
42104;SDS011;70664;51.472;5.712;2023-06-14T05:09:24;6.28;;;3.47;;
42104;SDS011;70664;51.472;5.712;2023-06-14T05:11:50;5.18;;;3.75;;
42104;SDS011;70664;51.472;5.712;2023-06-14T05:14:16;4.32;;;3.30;;
42104;SDS011;70664;51.472;5.712;2023-06-14T05:16:43;4.40;;;3.60;;
42104;SDS011;70664;51.472;5.712;2023-06-14T05:19:09;4.88;;;3.53;;
42104;SDS011;70664;51.472;5.712;2023-06-14T05:21:36;3.53;;;3.22;;
42104;SDS011;70664;51.472;5.712;2023-06-14T05:24:02;4.63;;;4.03;;
42104;SDS011;70664;51.472;5.712;2023-06-14T05:26:28;4.45;;;3.55;;
42104;SDS011;70664;51.472;5.712;2023-06-14T05:28:55;4.28;;;3.53;;
42104;SDS011;70664;51.472;5.712;2023-06-14T05:31:22;5.03;;;3.60;;
42104;SDS011;70664;51.472;5.712;2023-06-14T05:33:50;4.60;;;3.60;;
42104;SDS011;70664;51.472;5.712;2023-06-14T05:36:17;4.25;;;3.38;;
42104;SDS011;70664;51.472;5.712;2023-06-14T05:38:44;6.53;;;3.42;;
42104;SDS011;70664;51.472;5.712;2023-06-14T05:41:10;4.07;;;3.50;;
42104;SDS011;70664;51.472;5.712;2023-06-14T05:43:36;4.78;;;3.50;;
42104;SDS011;70664;51.472;5.712;2023-06-14T05:46:02;4.70;;;3.50;;
42104;SDS011;70664;51.472;5.712;2023-06-14T05:48:28;6.97;;;3.88;;
42104;SDS011;70664;51.472;5.712;2023-06-14T05:50:55;5.22;;;3.65;;
42104;SDS011;70664;51.472;5.712;2023-06-14T05:53:21;4.40;;;3.53;;
42104;SDS011;70664;51.472;5.712;2023-06-14T05:55:47;7.03;;;3.97;;
42104;SDS011;70664;51.472;5.712;2023-06-14T05:58:15;4.85;;;3.25;;
42104;SDS011;70664;51.472;5.712;2023-06-14T06:00:41;7.25;;;3.97;;
42104;SDS011;70664;51.472;5.712;2023-06-14T06:03:07;3.65;;;3.13;;
42104;SDS011;70664;51.472;5.712;2023-06-14T06:05:34;3.97;;;3.58;;
42104;SDS011;70664;51.472;5.712;2023-06-14T06:08:00;4.60;;;3.40;;
42104;SDS011;70664;51.472;5.712;2023-06-14T06:10:26;4.57;;;3.60;;
42104;SDS011;70664;51.472;5.712;2023-06-14T06:12:51;5.18;;;3.10;;
42104;SDS011;70664;51.472;5.712;2023-06-14T06:15:19;3.80;;;3.42;;
42104;SDS011;70664;51.472;5.712;2023-06-14T06:17:45;5.28;;;3.60;;
42104;SDS011;70664;51.472;5.712;2023-06-14T06:20:11;4.35;;;3.30;;
42104;SDS011;70664;51.472;5.712;2023-06-14T06:22:38;3.75;;;3.20;;
42104;SDS011;70664;51.472;5.712;2023-06-14T06:25:04;4.40;;;3.22;;
42104;SDS011;70664;51.472;5.712;2023-06-14T06:27:31;5.32;;;3.63;;
42104;SDS011;70664;51.472;5.712;2023-06-14T06:29:57;5.63;;;3.78;;
42104;SDS011;70664;51.472;5.712;2023-06-14T06:32:23;3.90;;;3.17;;
42104;SDS011;70664;51.472;5.712;2023-06-14T06:34:49;6.10;;;3.58;;
42104;SDS011;70664;51.472;5.712;2023-06-14T06:37:15;4.07;;;3.42;;
42104;SDS011;70664;51.472;5.712;2023-06-14T06:39:41;6.82;;;3.40;;
42104;SDS011;70664;51.472;5.712;2023-06-14T06:42:07;5.45;;;3.42;;
42104;SDS011;70664;51.472;5.712;2023-06-14T06:44:33;4.72;;;3.33;;
42104;SDS011;70664;51.472;5.712;2023-06-14T06:46:59;4.55;;;3.22;;
42104;SDS011;70664;51.472;5.712;2023-06-14T06:49:25;6.00;;;3.30;;
42104;SDS011;70664;51.472;5.712;2023-06-14T06:52:01;5.63;;;3.30;;
42104;SDS011;70664;51.472;5.712;2023-06-14T06:54:30;4.75;;;3.15;;
42104;SDS011;70664;51.472;5.712;2023-06-14T06:56:56;6.82;;;3.50;;
42104;SDS011;70664;51.472;5.712;2023-06-14T06:59:22;6.43;;;3.20;;
42104;SDS011;70664;51.472;5.712;2023-06-14T07:01:48;4.85;;;3.38;;
42104;SDS011;70664;51.472;5.712;2023-06-14T07:04:15;5.97;;;3.30;;
42104;SDS011;70664;51.472;5.712;2023-06-14T07:06:41;4.50;;;3.28;;
42104;SDS011;70664;51.472;5.712;2023-06-14T07:09:07;5.70;;;3.42;;
42104;SDS011;70664;51.472;5.712;2023-06-14T07:11:38;4.70;;;3.50;;
42104;SDS011;70664;51.472;5.712;2023-06-14T07:14:04;5.90;;;3.50;;
42104;SDS011;70664;51.472;5.712;2023-06-14T07:16:31;6.10;;;3.25;;
42104;SDS011;70664;51.472;5.712;2023-06-14T07:18:57;6.45;;;3.58;;
42104;SDS011;70664;51.472;5.712;2023-06-14T07:21:23;7.45;;;3.38;;
42104;SDS011;70664;51.472;5.712;2023-06-14T07:23:51;5.70;;;3.20;;
42104;SDS011;70664;51.472;5.712;2023-06-14T07:26:18;4.32;;;3.20;;
42104;SDS011;70664;51.472;5.712;2023-06-14T07:28:45;6.82;;;3.30;;
42104;SDS011;70664;51.472;5.712;2023-06-14T07:31:13;6.78;;;3.40;;
42104;SDS011;70664;51.472;5.712;2023-06-14T07:33:40;5.75;;;3.40;;
42104;SDS011;70664;51.472;5.712;2023-06-14T07:36:07;6.68;;;3.60;;
42104;SDS011;70664;51.472;5.712;2023-06-14T07:38:33;6.00;;;3.13;;
42104;SDS011;70664;51.472;5.712;2023-06-14T07:41:00;4.00;;;3.17;;
42104;SDS011;70664;51.472;5.712;2023-06-14T07:43:26;4.43;;;2.90;;
42104;SDS011;70664;51.472;5.712;2023-06-14T07:45:52;7.50;;;3.30;;
42104;SDS011;70664;51.472;5.712;2023-06-14T07:48:18;3.50;;;3.08;;
42104;SDS011;70664;51.472;5.712;2023-06-14T07:50:43;6.35;;;3.05;;
42104;SDS011;70664;51.472;5.712;2023-06-14T07:53:09;5.70;;;3.60;;
42104;SDS011;70664;51.472;5.712;2023-06-14T07:55:35;6.78;;;3.55;;
42104;SDS011;70664;51.472;5.712;2023-06-14T07:58:08;6.95;;;3.13;;
42104;SDS011;70664;51.472;5.712;2023-06-14T08:00:34;7.88;;;3.20;;
42104;SDS011;70664;51.472;5.712;2023-06-14T08:02:59;5.60;;;2.72;;
42104;SDS011;70664;51.472;5.712;2023-06-14T08:05:26;7.22;;;3.30;;
42104;SDS011;70664;51.472;5.712;2023-06-14T08:07:53;7.57;;;3.10;;
42104;SDS011;70664;51.472;5.712;2023-06-14T08:10:20;8.73;;;2.80;;
42104;SDS011;70664;51.472;5.712;2023-06-14T08:12:47;5.90;;;2.78;;
42104;SDS011;70664;51.472;5.712;2023-06-14T08:15:16;12.95;;;3.05;;
42104;SDS011;70664;51.472;5.712;2023-06-14T08:17:43;14.95;;;2.80;;
42104;SDS011;70664;51.472;5.712;2023-06-14T08:20:10;5.95;;;2.60;;
42104;SDS011;70664;51.472;5.712;2023-06-14T08:22:38;5.57;;;2.88;;
42104;SDS011;70664;51.472;5.712;2023-06-14T08:25:07;6.43;;;2.72;;
42104;SDS011;70664;51.472;5.712;2023-06-14T08:27:34;8.00;;;2.67;;
42104;SDS011;70664;51.472;5.712;2023-06-14T08:30:00;6.82;;;2.75;;
42104;SDS011;70664;51.472;5.712;2023-06-14T08:32:27;7.07;;;2.72;;
42104;SDS011;70664;51.472;5.712;2023-06-14T08:34:53;7.82;;;2.58;;
42104;SDS011;70664;51.472;5.712;2023-06-14T08:37:19;6.60;;;2.30;;
42104;SDS011;70664;51.472;5.712;2023-06-14T08:39:45;6.53;;;2.45;;
42104;SDS011;70664;51.472;5.712;2023-06-14T08:42:11;9.90;;;2.80;;
42104;SDS011;70664;51.472;5.712;2023-06-14T08:44:39;5.20;;;2.65;;
42104;SDS011;70664;51.472;5.712;2023-06-14T08:47:05;7.53;;;2.50;;
42104;SDS011;70664;51.472;5.712;2023-06-14T08:49:33;6.57;;;2.30;;
42104;SDS011;70664;51.472;5.712;2023-06-14T08:52:02;7.10;;;2.35;;
42104;SDS011;70664;51.472;5.712;2023-06-14T08:54:30;5.18;;;2.15;;
42104;SDS011;70664;51.472;5.712;2023-06-14T08:56:57;6.47;;;2.35;;
42104;SDS011;70664;51.472;5.712;2023-06-14T08:59:27;4.80;;;2.08;;
42104;SDS011;70664;51.472;5.712;2023-06-14T09:01:54;6.63;;;1.98;;
42104;SDS011;70664;51.472;5.712;2023-06-14T09:04:23;4.53;;;2.03;;
42104;SDS011;70664;51.472;5.712;2023-06-14T09:09:21;5.72;;;2.15;;
42104;SDS011;70664;51.472;5.712;2023-06-14T09:11:48;5.65;;;1.83;;
42104;SDS011;70664;51.472;5.712;2023-06-14T09:14:15;2.28;;;1.83;;
42104;SDS011;70664;51.472;5.712;2023-06-14T09:16:42;7.60;;;2.38;;
42104;SDS011;70664;51.472;5.712;2023-06-14T09:19:08;7.30;;;2.10;;
42104;SDS011;70664;51.472;5.712;2023-06-14T09:21:38;8.13;;;1.70;;
42104;SDS011;70664;51.472;5.712;2023-06-14T09:24:05;11.52;;;2.13;;
42104;SDS011;70664;51.472;5.712;2023-06-14T09:26:38;15.48;;;2.00;;
42104;SDS011;70664;51.472;5.712;2023-06-14T09:29:04;3.67;;;1.73;;
42104;SDS011;70664;51.472;5.712;2023-06-14T09:31:31;8.82;;;1.65;;
42104;SDS011;70664;51.472;5.712;2023-06-14T09:33:57;6.18;;;1.73;;
42104;SDS011;70664;51.472;5.712;2023-06-14T09:36:26;5.85;;;1.52;;
42104;SDS011;70664;51.472;5.712;2023-06-14T09:38:53;5.07;;;1.70;;
42104;SDS011;70664;51.472;5.712;2023-06-14T09:41:33;3.28;;;1.50;;
42104;SDS011;70664;51.472;5.712;2023-06-14T09:44:02;5.32;;;1.50;;
42104;SDS011;70664;51.472;5.712;2023-06-14T09:46:31;4.10;;;1.70;;
42104;SDS011;70664;51.472;5.712;2023-06-14T09:48:57;4.85;;;1.70;;
42104;SDS011;70664;51.472;5.712;2023-06-14T09:51:24;4.90;;;1.90;;
42104;SDS011;70664;51.472;5.712;2023-06-14T09:53:51;2.22;;;1.40;;
42104;SDS011;70664;51.472;5.712;2023-06-14T09:56:25;3.38;;;1.40;;
42104;SDS011;70664;51.472;5.712;2023-06-14T09:59:05;8.13;;;1.77;;
42104;SDS011;70664;51.472;5.712;2023-06-14T10:01:32;6.63;;;1.95;;
42104;SDS011;70664;51.472;5.712;2023-06-14T10:04:06;2.47;;;1.77;;
42104;SDS011;70664;51.472;5.712;2023-06-14T10:06:35;8.25;;;2.08;;
42104;SDS011;70664;51.472;5.712;2023-06-14T10:09:05;6.28;;;1.70;;
42104;SDS011;70664;51.472;5.712;2023-06-14T10:11:35;3.35;;;1.70;;
42104;SDS011;70664;51.472;5.712;2023-06-14T10:14:08;7.70;;;1.77;;
42104;SDS011;70664;51.472;5.712;2023-06-14T10:19:32;4.88;;;1.90;;
42104;SDS011;70664;51.472;5.712;2023-06-14T10:22:14;3.13;;;1.50;;
42104;SDS011;70664;51.472;5.712;2023-06-14T10:24:47;2.08;;;1.40;;
42104;SDS011;70664;51.472;5.712;2023-06-14T10:27:15;3.00;;;1.48;;
42104;SDS011;70664;51.472;5.712;2023-06-14T10:32:18;3.33;;;1.40;;
42104;SDS011;70664;51.472;5.712;2023-06-14T10:34:45;7.53;;;1.73;;
42104;SDS011;70664;51.472;5.712;2023-06-14T10:37:22;7.75;;;1.60;;
42104;SDS011;70664;51.472;5.712;2023-06-14T10:39:49;5.03;;;1.52;;
42104;SDS011;70664;51.472;5.712;2023-06-14T10:42:16;8.13;;;1.90;;
42104;SDS011;70664;51.472;5.712;2023-06-14T10:44:43;5.28;;;1.73;;
42104;SDS011;70664;51.472;5.712;2023-06-14T10:47:23;8.95;;;1.90;;
42104;SDS011;70664;51.472;5.712;2023-06-14T10:52:39;5.05;;;1.73;;
42104;SDS011;70664;51.472;5.712;2023-06-14T10:55:12;13.05;;;1.80;;
42104;SDS011;70664;51.472;5.712;2023-06-14T10:57:45;3.80;;;1.92;;
42104;SDS011;70664;51.472;5.712;2023-06-14T11:00:31;7.10;;;2.42;;
42104;SDS011;70664;51.472;5.712;2023-06-14T11:06:01;7.00;;;1.80;;
42104;SDS011;70664;51.472;5.712;2023-06-14T11:11:31;5.10;;;1.60;;
42104;SDS011;70664;51.472;5.712;2023-06-14T11:14:00;2.97;;;1.45;;
42104;SDS011;70664;51.472;5.712;2023-06-14T11:16:33;4.30;;;1.88;;
42104;SDS011;70664;51.472;5.712;2023-06-14T11:19:01;4.35;;;1.88;;
42104;SDS011;70664;51.472;5.712;2023-06-14T11:21:47;4.25;;;1.60;;
42104;SDS011;70664;51.472;5.712;2023-06-14T11:24:14;4.90;;;1.65;;
42104;SDS011;70664;51.472;5.712;2023-06-14T11:26:40;3.30;;;1.90;;
42104;SDS011;70664;51.472;5.712;2023-06-14T11:29:06;3.25;;;1.80;;
42104;SDS011;70664;51.472;5.712;2023-06-14T11:31:32;6.22;;;1.67;;
42104;SDS011;70664;51.472;5.712;2023-06-14T11:33:59;3.50;;;1.60;;
42104;SDS011;70664;51.472;5.712;2023-06-14T11:36:33;5.07;;;2.08;;
42104;SDS011;70664;51.472;5.712;2023-06-14T11:39:01;9.68;;;1.90;;
42104;SDS011;70664;51.472;5.712;2023-06-14T11:44:07;3.75;;;1.90;;
42104;SDS011;70664;51.472;5.712;2023-06-14T11:46:34;2.60;;;1.52;;
42104;SDS011;70664;51.472;5.712;2023-06-14T11:49:00;3.47;;;1.50;;
42104;SDS011;70664;51.472;5.712;2023-06-14T11:51:32;3.30;;;1.63;;
42104;SDS011;70664;51.472;5.712;2023-06-14T11:54:00;2.95;;;1.55;;
42104;SDS011;70664;51.472;5.712;2023-06-14T11:56:28;4.82;;;1.65;;
42104;SDS011;70664;51.472;5.712;2023-06-14T11:58:57;3.30;;;1.60;;
42104;SDS011;70664;51.472;5.712;2023-06-14T12:01:23;2.97;;;1.70;;
42104;SDS011;70664;51.472;5.712;2023-06-14T12:03:51;2.42;;;1.35;;
42104;SDS011;70664;51.472;5.712;2023-06-14T12:06:30;2.00;;;1.60;;
42104;SDS011;70664;51.472;5.712;2023-06-14T12:09:03;3.33;;;1.48;;
42104;SDS011;70664;51.472;5.712;2023-06-14T12:11:32;2.55;;;1.70;;
42104;SDS011;70664;51.472;5.712;2023-06-14T12:14:00;2.83;;;1.38;;
42104;SDS011;70664;51.472;5.712;2023-06-14T12:16:33;3.33;;;1.63;;
42104;SDS011;70664;51.472;5.712;2023-06-14T12:19:09;2.40;;;1.35;;
42104;SDS011;70664;51.472;5.712;2023-06-14T12:21:42;2.65;;;1.40;;
42104;SDS011;70664;51.472;5.712;2023-06-14T12:24:13;2.60;;;1.52;;
42104;SDS011;70664;51.472;5.712;2023-06-14T12:26:40;1.92;;;1.38;;
42104;SDS011;70664;51.472;5.712;2023-06-14T12:29:07;3.33;;;1.60;;
42104;SDS011;70664;51.472;5.712;2023-06-14T12:31:33;3.40;;;1.30;;
42104;SDS011;70664;51.472;5.712;2023-06-14T12:33:59;1.90;;;1.40;;
42104;SDS011;70664;51.472;5.712;2023-06-14T12:36:25;3.42;;;1.40;;
42104;SDS011;70664;51.472;5.712;2023-06-14T12:38:52;3.53;;;1.40;;
42104;SDS011;70664;51.472;5.712;2023-06-14T12:41:21;4.05;;;1.30;;
42104;SDS011;70664;51.472;5.712;2023-06-14T12:43:47;5.28;;;1.58;;
42104;SDS011;70664;51.472;5.712;2023-06-14T12:46:13;3.55;;;1.70;;
42104;SDS011;70664;51.472;5.712;2023-06-14T12:48:39;3.72;;;1.63;;
42104;SDS011;70664;51.472;5.712;2023-06-14T12:51:05;4.18;;;1.40;;
42104;SDS011;70664;51.472;5.712;2023-06-14T12:53:31;2.90;;;1.50;;
42104;SDS011;70664;51.472;5.712;2023-06-14T12:55:57;2.85;;;1.40;;
42104;SDS011;70664;51.472;5.712;2023-06-14T12:58:23;2.33;;;1.20;;
42104;SDS011;70664;51.472;5.712;2023-06-14T13:00:49;5.20;;;1.38;;
42104;SDS011;70664;51.472;5.712;2023-06-14T13:03:15;4.80;;;1.50;;
42104;SDS011;70664;51.472;5.712;2023-06-14T13:05:41;2.00;;;1.58;;
42104;SDS011;70664;51.472;5.712;2023-06-14T13:08:08;2.15;;;1.60;;
42104;SDS011;70664;51.472;5.712;2023-06-14T13:10:34;4.90;;;1.50;;
42104;SDS011;70664;51.472;5.712;2023-06-14T13:13:00;3.20;;;1.20;;
42104;SDS011;70664;51.472;5.712;2023-06-14T13:15:26;2.40;;;1.20;;
42104;SDS011;70664;51.472;5.712;2023-06-14T13:17:52;3.35;;;1.40;;
42104;SDS011;70664;51.472;5.712;2023-06-14T13:20:18;2.53;;;1.33;;
42104;SDS011;70664;51.472;5.712;2023-06-14T13:22:44;3.05;;;1.50;;
42104;SDS011;70664;51.472;5.712;2023-06-14T13:25:10;2.75;;;1.38;;
42104;SDS011;70664;51.472;5.712;2023-06-14T13:27:36;2.30;;;1.50;;
42104;SDS011;70664;51.472;5.712;2023-06-14T13:30:02;3.17;;;1.52;;
42104;SDS011;70664;51.472;5.712;2023-06-14T13:32:30;3.92;;;1.40;;
42104;SDS011;70664;51.472;5.712;2023-06-14T13:34:56;3.15;;;1.50;;
42104;SDS011;70664;51.472;5.712;2023-06-14T13:37:22;2.55;;;1.38;;
42104;SDS011;70664;51.472;5.712;2023-06-14T13:39:49;2.22;;;1.27;;
42104;SDS011;70664;51.472;5.712;2023-06-14T13:42:15;2.22;;;1.38;;
42104;SDS011;70664;51.472;5.712;2023-06-14T13:44:40;1.92;;;1.13;;
42104;SDS011;70664;51.472;5.712;2023-06-14T13:47:06;6.55;;;1.50;;
42104;SDS011;70664;51.472;5.712;2023-06-14T13:49:32;1.73;;;1.10;;
42104;SDS011;70664;51.472;5.712;2023-06-14T13:52:00;5.30;;;1.27;;
42104;SDS011;70664;51.472;5.712;2023-06-14T13:54:26;3.45;;;1.52;;
42104;SDS011;70664;51.472;5.712;2023-06-14T13:56:52;1.90;;;1.52;;
42104;SDS011;70664;51.472;5.712;2023-06-14T13:59:19;2.95;;;1.23;;
42104;SDS011;70664;51.472;5.712;2023-06-14T14:01:45;2.95;;;1.20;;
42104;SDS011;70664;51.472;5.712;2023-06-14T14:04:11;4.35;;;1.40;;
42104;SDS011;70664;51.472;5.712;2023-06-14T14:06:37;5.20;;;1.30;;
42104;SDS011;70664;51.472;5.712;2023-06-14T14:09:03;2.55;;;1.27;;
42104;SDS011;70664;51.472;5.712;2023-06-14T14:11:28;1.92;;;1.23;;
42104;SDS011;70664;51.472;5.712;2023-06-14T14:13:57;2.28;;;1.40;;
42104;SDS011;70664;51.472;5.712;2023-06-14T14:16:23;3.42;;;1.27;;
42104;SDS011;70664;51.472;5.712;2023-06-14T14:18:48;3.47;;;1.30;;
42104;SDS011;70664;51.472;5.712;2023-06-14T14:21:14;1.45;;;1.10;;
42104;SDS011;70664;51.472;5.712;2023-06-14T14:23:40;1.45;;;1.17;;
42104;SDS011;70664;51.472;5.712;2023-06-14T14:26:06;4.50;;;1.30;;
42104;SDS011;70664;51.472;5.712;2023-06-14T14:28:31;2.45;;;1.10;;
42104;SDS011;70664;51.472;5.712;2023-06-14T14:30:58;3.83;;;1.20;;
42104;SDS011;70664;51.472;5.712;2023-06-14T14:33:24;1.45;;;1.02;;
42104;SDS011;70664;51.472;5.712;2023-06-14T14:35:50;2.08;;;1.40;;
42104;SDS011;70664;51.472;5.712;2023-06-14T14:38:16;2.00;;;1.05;;
42104;SDS011;70664;51.472;5.712;2023-06-14T14:40:42;3.58;;;1.10;;
42104;SDS011;70664;51.472;5.712;2023-06-14T14:43:09;3.63;;;1.30;;
42104;SDS011;70664;51.472;5.712;2023-06-14T14:45:36;4.68;;;1.20;;
42104;SDS011;70664;51.472;5.712;2023-06-14T14:48:02;2.80;;;1.23;;
42104;SDS011;70664;51.472;5.712;2023-06-14T14:50:28;2.58;;;1.10;;
42104;SDS011;70664;51.472;5.712;2023-06-14T14:52:55;3.10;;;1.38;;
42104;SDS011;70664;51.472;5.712;2023-06-14T14:55:21;4.75;;;1.20;;
42104;SDS011;70664;51.472;5.712;2023-06-14T14:57:47;2.30;;;1.10;;
42104;SDS011;70664;51.472;5.712;2023-06-14T15:00:13;2.92;;;1.30;;
42104;SDS011;70664;51.472;5.712;2023-06-14T15:02:39;2.38;;;1.10;;
42104;SDS011;70664;51.472;5.712;2023-06-14T15:05:05;2.88;;;1.40;;
42104;SDS011;70664;51.472;5.712;2023-06-14T15:07:31;5.05;;;1.23;;
42104;SDS011;70664;51.472;5.712;2023-06-14T15:09:58;2.15;;;1.02;;
42104;SDS011;70664;51.472;5.712;2023-06-14T15:12:25;4.50;;;1.20;;
42104;SDS011;70664;51.472;5.712;2023-06-14T15:14:51;6.25;;;1.38;;